createdAt,value
2022-09-02T00:03:50.662Z,35.41
2022-09-02T00:10:17.777Z,35.31
2022-09-02T00:16:44.904Z,35.27
2022-09-02T00:23:15.219Z,35.32
2022-09-02T00:29:47.232Z,35.22
2022-09-02T00:36:11.857Z,35.1
2022-09-02T00:42:47.731Z,35.15
2022-09-02T00:49:38.354Z,35.18
2022-09-02T00:56:31.758Z,35.11
2022-09-02T01:03:17.893Z,35.05
2022-09-02T01:09:53.255Z,34.88
2022-09-02T01:16:26.742Z,34.95
2022-09-02T01:23:10.631Z,34.96
2022-09-02T01:29:41.163Z,35.01
2022-09-02T01:36:15.259Z,34.74
2022-09-02T01:42:46.751Z,34.6
2022-09-02T01:49:27.967Z,34.76
2022-09-02T01:55:57.667Z,34.89
2022-09-02T02:02:25.731Z,34.98
2022-09-02T02:09:03.850Z,35.04
2022-09-02T02:15:44.041Z,34.94
2022-09-02T02:22:20.065Z,34.86
2022-09-02T02:28:45.033Z,34.8
2022-09-02T02:35:17.737Z,34.91
2022-09-02T02:41:47.977Z,34.91
2022-09-02T02:48:31.894Z,34.82
2022-09-02T02:55:16.098Z,34.89
2022-09-02T03:01:54.405Z,34.83
2022-09-02T03:08:33.933Z,34.87
2022-09-02T03:14:58.105Z,34.81
2022-09-02T03:21:38.965Z,34.78
2022-09-02T03:28:07.921Z,34.82
2022-09-02T03:34:42.849Z,34.84
2022-09-02T03:41:07.882Z,34.82
2022-09-02T03:47:42.292Z,34.87
2022-09-02T03:54:21.105Z,34.86
2022-09-02T04:00:56.763Z,34.85
2022-09-02T04:07:25.259Z,34.89
2022-09-02T04:13:55.299Z,34.82
2022-09-02T04:20:26.579Z,34.73
2022-09-02T04:27:04.671Z,34.64
2022-09-02T04:33:41.119Z,34.67
2022-09-02T04:40:09.179Z,34.58
2022-09-02T04:46:43.377Z,34.54
2022-09-02T04:53:26.937Z,34.5
2022-09-02T04:59:52.966Z,34.45
2022-09-02T05:06:34.641Z,34.42
2022-09-02T05:13:19.027Z,34.42
2022-09-02T05:19:52.268Z,34.43
2022-09-02T05:26:18.886Z,34.48
2022-09-02T05:32:46.059Z,34.45
2022-09-02T05:39:16.257Z,34.51
2022-09-02T05:45:50.104Z,34.34
2022-09-02T05:52:19.958Z,34.38
2022-09-02T05:59:01.751Z,34.23
2022-09-02T06:05:38.904Z,34.46
2022-09-02T06:12:06.936Z,34.41
2022-09-02T06:18:32.932Z,34.43
2022-09-02T06:25:01.119Z,34.45
2022-09-02T06:31:35.090Z,34.39
2022-09-02T06:38:12.045Z,34.35
2022-09-02T06:44:46.937Z,34.35
2022-09-02T06:51:27.424Z,34.36
2022-09-02T06:57:56.774Z,34.37
2022-09-02T07:04:34.983Z,34.36
2022-09-02T07:11:18.594Z,34.34
2022-09-02T07:17:53.039Z,34.38
2022-09-02T07:24:30.081Z,34.29
2022-09-02T07:30:59.895Z,34.4
2022-09-02T07:37:27.407Z,34.3
2022-09-02T07:44:00.180Z,34.28
2022-09-02T07:50:30.421Z,34.34
2022-09-02T07:56:56.791Z,34.28
2022-09-02T08:03:24.228Z,34.28
2022-09-02T08:09:46.736Z,34.28
2022-09-02T08:16:17.591Z,34.28
2022-09-02T08:22:41.721Z,34.28
2022-09-02T08:29:10.445Z,34.28
2022-09-02T08:35:36.401Z,34.28
2022-09-02T08:42:10.989Z,34.28
2022-09-02T08:49:05.183Z,34.28
2022-09-02T08:56:10.461Z,34.28
2022-09-02T09:02:55.494Z,34.28
2022-09-02T09:10:02.530Z,34.28
2022-09-02T09:17:02.242Z,34.28
2022-09-02T09:23:59.759Z,34.28
2022-09-02T09:30:39.128Z,34.28
2022-09-02T09:37:35.835Z,34.28
2022-09-02T09:44:26.549Z,34.28
2022-09-02T09:51:20.100Z,34.28
2022-09-02T09:57:57.647Z,34.28
2022-09-02T10:04:54.290Z,34.28
2022-09-02T10:11:57.062Z,34.28
2022-09-02T10:18:53.551Z,34.28
2022-09-02T10:25:49.519Z,34.28
2022-09-02T10:32:48.494Z,34.28
2022-09-02T10:39:52.648Z,34.28
2022-09-02T10:46:54.421Z,34.28
2022-09-02T10:53:45.872Z,34.28
2022-09-02T11:00:59.488Z,34.28
2022-09-02T11:07:56.917Z,34.28
2022-09-02T11:14:53.282Z,34.28
2022-09-02T11:21:45.772Z,34.28
2022-09-02T11:29:02.085Z,34.28
2022-09-02T11:36:02.858Z,34.28
2022-09-02T11:42:57.257Z,34.28
2022-09-02T11:49:53.035Z,34.28
2022-09-02T11:56:48.968Z,34.28
2022-09-02T12:04:40.007Z,34.28
2022-09-02T12:10:56.579Z,34.28
2022-09-02T12:17:32.592Z,34.28
2022-09-02T12:24:26.707Z,34.28
2022-09-02T12:31:08.109Z,34.28
2022-09-02T12:37:54.304Z,34.28
2022-09-02T12:44:51.503Z,34.28
2022-09-02T12:51:59.984Z,34.28
2022-09-02T12:59:02.811Z,34.28
2022-09-02T13:05:58.006Z,34.28
2022-09-02T13:12:58.310Z,34.28
2022-09-02T13:19:53.008Z,34.28
2022-09-02T13:26:50.981Z,34.28
2022-09-02T13:33:54.374Z,34.28
2022-09-02T13:40:34.876Z,34.28
2022-09-02T13:47:08.898Z,34.28
2022-09-02T13:54:18.499Z,34.28
2022-09-02T14:00:36.710Z,34.28
2022-09-02T14:07:14.150Z,34.28
2022-09-02T14:13:54.420Z,34.28
2022-09-02T14:20:37.068Z,34.28
2022-09-02T14:27:16.615Z,34.28
2022-09-02T14:33:59.441Z,34.28
2022-09-02T14:40:44.712Z,34.28
2022-09-02T14:47:34.988Z,34.28
2022-09-02T14:54:21.401Z,34.28
2022-09-02T15:01:10.140Z,34.28
2022-09-02T15:07:40.127Z,34.28
2022-09-02T15:14:15.066Z,34.28
2022-09-02T15:20:34.766Z,34.28
2022-09-02T15:26:59.040Z,34.28
2022-09-02T15:33:25.705Z,34.28
2022-09-02T15:39:52.989Z,34.28
2022-09-02T15:46:34.920Z,34.28
2022-09-02T15:53:06.802Z,34.28
2022-09-02T15:59:32.490Z,34.28
2022-09-02T16:05:53.751Z,34.28
2022-09-02T16:12:25.455Z,34.28
2022-09-02T16:18:50.743Z,34.28
2022-09-02T16:25:15.366Z,34.28
2022-09-02T16:32:02.127Z,34.28
2022-09-02T16:38:27.640Z,34.28
2022-09-02T16:44:52.546Z,34.28
2022-09-02T16:51:13.433Z,34.28
2022-09-02T16:57:38.029Z,34.28
2022-09-02T17:03:57.203Z,34.28
2022-09-02T17:10:21.469Z,34.28
2022-09-02T17:16:48.416Z,34.28
2022-09-02T17:23:28.838Z,34.28
2022-09-02T17:29:55.807Z,34.28
2022-09-02T17:36:27.509Z,34.28
2022-09-02T17:42:58.296Z,34.28
2022-09-02T17:49:23.276Z,34.28
2022-09-02T17:55:45.244Z,34.28
2022-09-02T18:02:42.790Z,34.28
2022-09-02T18:09:39.504Z,34.28
2022-09-02T18:16:23.751Z,34.28
2022-09-02T18:23:25.038Z,34.28
2022-09-02T18:30:30.123Z,34.28
2022-09-02T18:37:27.996Z,34.28
2022-09-02T18:44:22.340Z,34.28
2022-09-02T18:51:13.834Z,34.28
2022-09-02T18:58:13.279Z,34.28
2022-09-02T19:04:52.414Z,34.28
2022-09-02T19:11:35.773Z,34.28
2022-09-02T19:18:17.643Z,34.28
2022-09-02T19:24:56.987Z,34.28
2022-09-02T19:31:42.017Z,34.28
2022-09-02T19:38:25.961Z,34.28
2022-09-02T19:44:52.667Z,34.28
2022-09-02T19:51:15.555Z,34.28
2022-09-02T19:57:43.244Z,34.28
2022-09-02T20:04:03.420Z,34.28
2022-09-02T20:10:30.372Z,34.28
2022-09-02T20:16:58.272Z,34.28
2022-09-02T20:23:32.660Z,34.28
2022-09-02T20:30:35.655Z,34.28
2022-09-02T20:37:40.537Z,34.28
2022-09-02T20:44:57.271Z,34.28
2022-09-02T20:52:04.915Z,34.28
2022-09-02T20:59:13.561Z,34.28
2022-09-02T21:06:08.380Z,34.28
2022-09-02T21:13:11.567Z,34.28
2022-09-02T21:20:11.674Z,34.28
2022-09-02T21:27:04.889Z,34.28
2022-09-02T21:34:20.410Z,34.28
2022-09-02T21:41:18.511Z,34.28
2022-09-02T21:48:29.933Z,34.28
2022-09-02T21:55:37.001Z,34.28
2022-09-02T22:02:33.132Z,34.28
2022-09-02T22:09:27.401Z,34.28
2022-09-02T22:16:20.318Z,34.28
2022-09-02T22:23:09.160Z,34.28
2022-09-02T22:29:47.946Z,34.28
2022-09-02T22:36:47.606Z,34.28
2022-09-02T22:43:43.644Z,34.28
2022-09-02T22:50:39.091Z,34.28
2022-09-02T22:57:21.430Z,34.28
2022-09-02T23:04:20.459Z,34.28
2022-09-02T23:11:02.791Z,34.28
2022-09-02T23:17:59.464Z,34.28
2022-09-02T23:25:05.809Z,34.28
2022-09-02T23:32:04.532Z,34.28
2022-09-02T23:39:06.120Z,34.28
2022-09-02T23:45:49.613Z,34.28
2022-09-02T23:52:49.751Z,34.28
